Etusivu
METAR-TAF:

METAR-TAF

Lentoasemat :

Khartum, Sudan

Leveyspiiri: 15-36N, Pituuspiiri: 032-33E, korkeus merenpinnasta: 382 m

Tämänhetkinen sää

Tämä raportti tehtiin 17 minuuttia sitten, kello 10.00 UTC
Tuuli 7 kn etelästä/lounaasta
Lämpötila 28°C
Kosteus 70%
Ilmanpaine 1013 hPa
Näkyvyys 10 km tai enemmän
Muutamia pilviä 4000 ft:n korkeudessa

METAR: HSSS 161000Z 21007KT 9999 FEW040 28/22 Q1013 NOSIG

Aika: 13:17 (10:17 UTC)

Sääennuste

Tämä raportti tehtiin 5 tuntia ja 17 minuuttia sitten, kello 05.00 UTC
Ennuste voimassa 16. päivästä klo 06 UTC - 17. päivään klo 12 UTC
Tuuli 8 kn lännestä/lounaasta puuskistuen 15 kn:hen
Näkyvyys 10 km tai enemmän
Hajanaisia pilviä 14000 ft:n korkeudessa
Ajoittain
16. päivästä klo 11 UTC - 16. päivään klo 16 UTC
Näkyvyys 10 km tai enemmän
Muutamia pilviä 4000 ft:n korkeudessa
Hajanaisia pilviä 14000 ft:n korkeudessa

TAF: HSSS 160500Z 1606/1712 24008G15KT 9999 SCT140 TEMPO 1611/1616 9999 FEW040 SCT140

Säähavainnot ja -ennusteet yli 4000 lentoasemalta (METAR- ja TAF-raportit).

Käytössä olevat sääasemat on merkitty karttaan keltaisilla ja punaisilla pisteillä.

Aseta hiiri pisteen päälle nähdäksesi sääaseman nimen.

Klikkaa sitten nähdäksesi säähavainnot ja -ennusteet.

Kartan vaihtaminen: klikkaa mustalla rastilla varustettuja vihreitä pisteitä, niin voit zoomata sisään; viivalla varustettua vihreää pistettä, niin voit zoomata ulos tai vihreitä nuolia, niin pääset viereisille kartoille.


METAR-TAF: